createdAt,value
2023-03-16T00:09:36.889Z,10.57
2023-03-16T00:19:46.930Z,9.20
2023-03-16T00:29:56.831Z,9.73
2023-03-16T00:40:01.421Z,9.97
2023-03-16T00:50:09.077Z,9.40
2023-03-16T01:00:20.712Z,9.27
2023-03-16T01:10:30.697Z,9.73
2023-03-16T01:20:40.012Z,9.43
2023-03-16T01:30:46.782Z,8.10
2023-03-16T01:40:55.427Z,8.30
2023-03-16T01:51:06.205Z,8.53
2023-03-16T02:01:14.135Z,7.03
2023-03-16T02:11:18.519Z,7.13
2023-03-16T02:21:38.900Z,6.93
2023-03-16T02:31:41.115Z,6.37
2023-03-16T02:41:43.686Z,5.03
2023-03-16T02:51:48.783Z,6.13
2023-03-16T03:01:56.381Z,6.30
2023-03-16T03:12:03.354Z,5.60
2023-03-16T03:22:08.309Z,6.70
2023-03-16T03:32:10.668Z,7.13
2023-03-16T03:42:13.221Z,6.53
2023-03-16T03:52:15.927Z,8.73
2023-03-16T04:02:20.255Z,7.83
2023-03-16T04:12:30.303Z,8.00
2023-03-16T04:22:38.665Z,7.63
2023-03-16T04:32:45.630Z,7.13
2023-03-16T04:42:54.876Z,8.53
2023-03-16T04:53:04.771Z,7.37
2023-03-16T05:03:10.520Z,6.83
2023-03-16T05:13:12.663Z,7.53
2023-03-16T05:23:19.507Z,8.20
2023-03-16T05:33:27.700Z,8.63
2023-03-16T05:43:39.233Z,8.07
2023-03-16T05:53:49.221Z,8.73
2023-03-16T06:04:05.573Z,9.60
2023-03-16T06:14:13.950Z,8.77
2023-03-16T06:24:16.696Z,8.87
2023-03-16T06:34:24.216Z,8.50
2023-03-16T06:44:26.789Z,9.10
2023-03-16T06:54:39.762Z,7.27
2023-03-16T07:04:42.469Z,7.93
2023-03-16T07:14:50.367Z,8.87
2023-03-16T07:24:57.590Z,9.67
2023-03-16T07:35:05.209Z,9.23
2023-03-16T07:45:09.255Z,9.23
2023-03-16T07:55:17.449Z,8.97
2023-03-16T08:05:21.477Z,9.13
2023-03-16T08:15:33.360Z,8.80
2023-03-16T08:25:42.341Z,7.55
2023-03-16T08:35:48.730Z,8.00
2023-03-16T08:45:54.109Z,7.60
2023-03-16T08:56:11.551Z,7.85
2023-03-16T09:06:19.078Z,7.25
2023-03-16T09:16:26.079Z,6.20
2023-03-16T09:26:28.823Z,8.20
2023-03-16T09:36:31.382Z,7.33
2023-03-16T09:46:40.030Z,7.73
2023-03-16T09:56:45.634Z,6.63
2023-03-16T10:06:54.729Z,6.97
2023-03-16T10:17:25.107Z,4.68
2023-03-16T10:27:32.264Z,5.20
2023-03-16T10:37:38.916Z,3.73
2023-03-16T10:47:43.600Z,3.60
2023-03-16T10:57:50.830Z,4.77
2023-03-16T11:08:02.295Z,5.43
2023-03-16T11:18:09.413Z,4.60
2023-03-16T11:28:24.421Z,3.80
2023-03-16T11:38:52.414Z,4.18
2023-03-16T11:49:18.965Z,4.00
2023-03-16T11:59:42.334Z,3.53
2023-03-16T12:09:53.475Z,23.40
2023-03-16T12:20:14.061Z,4.40
2023-03-16T12:30:53.825Z,4.13
2023-03-16T12:41:20.051Z,4.10
2023-03-16T12:51:38.902Z,3.50
2023-03-16T13:01:44.936Z,3.40
2023-03-16T13:11:51.568Z,2.97
2023-03-16T13:22:33.285Z,3.53
2023-03-16T13:32:36.237Z,3.07
2023-03-16T13:42:40.519Z,3.30
2023-03-16T13:52:58.864Z,3.30
2023-03-16T14:03:33.254Z,2.90
2023-03-16T14:13:39.483Z,3.20
2023-03-16T14:24:15.905Z,2.83
2023-03-16T14:34:30.373Z,3.07
2023-03-16T14:44:37.069Z,2.83
2023-03-16T14:54:42.279Z,2.50
2023-03-16T15:04:45.359Z,2.80
2023-03-16T15:15:06.871Z,3.40
2023-03-16T15:25:37.222Z,2.60
2023-03-16T15:35:44.318Z,2.67
2023-03-16T15:45:49.764Z,2.47
2023-03-16T15:55:56.660Z,2.07
2023-03-16T16:06:03.526Z,2.33
2023-03-16T16:16:06.892Z,2.50
2023-03-16T16:26:27.879Z,3.73
2023-03-16T16:36:35.831Z,3.47
2023-03-16T16:46:45.407Z,3.13
2023-03-16T16:56:53.796Z,3.80
2023-03-16T17:06:59.059Z,3.93
2023-03-16T17:17:09.907Z,4.10
2023-03-16T17:27:14.447Z,4.37
2023-03-16T17:37:21.413Z,4.43
2023-03-16T17:47:30.334Z,4.50
2023-03-16T17:57:33.860Z,5.63
2023-03-16T18:07:43.121Z,4.23
2023-03-16T18:17:52.047Z,6.33
2023-03-16T18:27:57.774Z,4.60
2023-03-16T18:38:02.356Z,5.50
2023-03-16T18:48:10.117Z,6.57
2023-03-16T18:58:22.953Z,5.50
2023-03-16T19:08:29.986Z,5.20
2023-03-16T19:18:42.478Z,5.13
2023-03-16T19:28:46.197Z,4.90
2023-03-16T19:38:53.765Z,5.83
2023-03-16T19:48:58.744Z,4.53
2023-03-16T19:59:04.822Z,3.87
2023-03-16T20:09:11.375Z,4.80
2023-03-16T20:19:20.885Z,4.13
2023-03-16T20:29:31.726Z,4.33
2023-03-16T20:39:38.700Z,4.43
2023-03-16T20:49:46.311Z,6.20
2023-03-16T20:59:49.547Z,4.70
2023-03-16T21:09:52.376Z,5.70
2023-03-16T21:19:54.620Z,5.50
2023-03-16T21:30:07.712Z,6.43
2023-03-16T21:40:20.985Z,6.57
2023-03-16T21:50:28.022Z,6.43
2023-03-16T22:00:34.462Z,6.87
2023-03-16T22:10:44.802Z,6.93
2023-03-16T22:20:49.686Z,9.77
2023-03-16T22:30:57.704Z,11.87
2023-03-16T22:40:59.879Z,14.40
2023-03-16T22:51:05.102Z,15.17
2023-03-16T23:01:19.444Z,15.20
2023-03-16T23:11:36.001Z,14.90
2023-03-16T23:21:43.556Z,13.77
2023-03-16T23:31:45.707Z,14.63
2023-03-16T23:41:52.255Z,14.20
2023-03-16T23:52:01.588Z,13.20
